Time;durP1;ratioP1;P1;durP2;ratioP2;P2;SDS_P1;SDS_P2;PMS_P1;PMS_P2;Temp;Humidity;BMP_temperature;BMP_pressure;BME280_temperature;BME280_humidity;BME280_pressure;Samples;Min_cycle;Max_cycle;Signal;HPM_P1;HPM_P2
2023/07/24 08:55:04;;;;;;;11.00;6.65;;;;;;;18.76;87.45;95729.56;2107471;27;20546;-64
2023/07/24 08:57:13;;;;;;;16.15;7.65;;;;;;;18.83;87.06;95732.50;2084992;28;21075;-64
2023/07/24 08:58:15;;;;;;;13.57;7.05;;;;;;;19.00;87.49;95744.16;2076187;28;20576;-64
2023/07/24 08:59:16;;;;;;;13.48;7.07;;;;;;;19.27;87.38;95744.38;2073206;28;20194;-64
2023/07/24 09:00:18;;;;;;;16.35;8.50;;;;;;;19.32;89.52;95748.25;2073905;28;20253;-64
2023/07/24 09:01:20;;;;;;;12.05;7.38;;;;;;;19.59;89.84;95743.97;2072414;28;20197;-64
2023/07/24 09:02:21;;;;;;;21.38;9.00;;;;;;;19.79;88.14;95749.19;2070355;28;20225;-64
2023/07/24 09:03:23;;;;;;;13.02;6.72;;;;;;;19.97;86.63;95742.13;2069896;28;20798;-64
2023/07/24 09:04:25;;;;;;;13.80;7.22;;;;;;;20.09;84.01;95752.50;2073212;28;20561;-64
2023/07/24 09:05:26;;;;;;;15.82;7.95;;;;;;;20.17;83.92;95749.94;2072375;28;20244;-64
2023/07/24 09:06:28;;;;;;;16.58;7.80;;;;;;;20.06;84.58;95754.47;2072396;28;20212;-64
2023/07/24 09:07:31;;;;;;;15.23;7.85;;;;;;;20.08;83.59;95749.03;2072743;28;20193;-64
2023/07/24 09:08:44;;;;;;;12.88;7.47;;;;;;;20.07;83.67;95760.59;2071112;28;20229;-64
2023/07/24 09:09:49;;;;;;;16.55;7.65;;;;;;;20.00;85.08;95762.22;2073335;28;20243;-64
2023/07/24 09:10:50;;;;;;;15.32;8.20;;;;;;;20.18;86.16;95763.03;2073776;28;20288;-64
2023/07/24 09:11:53;;;;;;;14.77;7.60;;;;;;;20.28;84.15;95768.28;2070159;28;20272;-64
2023/07/24 09:12:55;;;;;;;14.00;7.68;;;;;;;20.51;83.58;95773.97;2067159;28;20209;-64
2023/07/24 09:13:56;;;;;;;12.57;7.60;;;;;;;20.54;83.77;95771.03;2073160;28;20201;-64
2023/07/24 09:15:02;;;;;;;14.70;8.85;;;;;;;20.78;83.67;95771.41;2074246;28;20226;-64
2023/07/24 09:16:04;;;;;;;14.32;7.50;;;;;;;20.77;83.30;95767.09;2071544;28;20240;-64
2023/07/24 09:17:10;;;;;;;13.32;6.95;;;;;;;20.78;83.65;95764.28;2071098;28;20210;-64
2023/07/24 09:18:12;;;;;;;14.00;7.00;;;;;;;20.71;84.16;95758.75;2072452;28;20245;-64
2023/07/24 09:19:20;;;;;;;13.20;7.78;;;;;;;20.50;83.82;95768.81;2071798;28;20189;-64
2023/07/24 09:20:38;;;;;;;18.48;8.43;;;;;;;20.36;84.43;95767.53;2074171;28;21082;-64
2023/07/24 09:21:42;;;;;;;15.88;8.75;;;;;;;20.13;84.39;95761.84;2071283;28;20282;-64
2023/07/24 09:22:53;;;;;;;13.07;6.70;;;;;;;20.05;85.35;95770.53;2074660;28;20193;-64
2023/07/24 09:24:15;;;;;;;12.60;7.53;;;;;;;19.92;85.87;95770.03;2071074;28;20226;-64
2023/07/24 09:25:17;;;;;;;15.80;7.70;;;;;;;19.81;86.22;95779.81;2068204;28;20213;-64
2023/07/24 09:26:18;;;;;;;12.73;7.40;;;;;;;19.68;86.27;95774.03;2073936;28;20193;-64
2023/07/24 09:27:27;;;;;;;13.40;7.45;;;;;;;19.58;86.64;95782.84;2071951;28;20275;-64
2023/07/24 09:28:30;;;;;;;13.80;7.05;;;;;;;19.46;86.95;95777.88;2069744;28;20229;-64
2023/07/24 11:27:54;;;;;;;17.35;9.35;;;;;;;17.69;98.59;95660.84;2080437;28;20574;-64
2023/07/24 11:28:56;;;;;;;14.95;7.65;;;;;;;17.68;96.79;95649.44;2080990;28;20204;-64
2023/07/24 11:29:57;;;;;;;14.27;7.60;;;;;;;17.81;96.21;95661.56;2080884;28;20254;-64
2023/07/24 11:31:02;;;;;;;15.45;7.90;;;;;;;17.97;95.75;95688.28;2082903;28;20208;-64
2023/07/24 11:32:04;;;;;;;14.80;7.40;;;;;;;18.00;93.84;95695.09;2082864;28;20220;-64
2023/07/24 11:33:07;;;;;;;15.15;7.85;;;;;;;18.13;94.26;95702.75;2082748;28;20635;-64
2023/07/24 11:34:09;;;;;;;14.93;7.88;;;;;;;18.27;94.37;95707.59;2081025;28;20205;-64
2023/07/24 11:35:11;;;;;;;10.80;6.25;;;;;;;18.36;92.04;95705.94;2080179;28;20239;-66
2023/07/24 11:36:13;;;;;;;14.43;7.53;;;;;;;18.54;92.85;95698.16;2081163;28;20193;-66
2023/07/24 11:37:15;;;;;;;14.68;7.40;;;;;;;18.73;92.82;95702.59;2081563;28;20276;-67
2023/07/24 11:38:16;;;;;;;16.33;7.93;;;;;;;18.74;90.00;95698.94;2082501;28;20282;-67
2023/07/24 11:39:25;;;;;;;14.63;8.18;;;;;;;18.87;88.96;95706.59;2084183;28;20200;-67
2023/07/24 11:40:45;;;;;;;12.82;7.50;;;;;;;18.55;90.14;95702.44;2083667;28;20587;-67
2023/07/24 11:41:47;;;;;;;14.38;8.13;;;;;;;18.62;90.05;95681.59;2082643;28;20207;-66
2023/07/24 11:42:49;;;;;;;13.82;7.72;;;;;;;18.74;90.63;95701.59;2080431;28;20217;-67
2023/07/24 11:43:50;;;;;;;12.88;7.03;;;;;;;18.71;88.34;95707.16;2079195;28;20548;-66
2023/07/24 11:44:52;;;;;;;12.15;6.15;;;;;;;18.78;90.19;95713.56;2081138;28;20204;-67
2023/07/24 11:45:55;;;;;;;11.82;6.57;;;;;;;18.76;90.69;95712.88;2082598;28;20196;-67
2023/07/24 11:47:04;;;;;;;12.63;6.68;;;;;;;18.66;90.49;95720.81;2081846;28;20197;-66
2023/07/24 11:48:09;;;;;;;11.63;6.75;;;;;;;18.65;88.82;95716.50;2082443;28;20882;-67
2023/07/24 11:49:14;;;;;;;16.90;7.05;;;;;;;18.61;90.00;95717.75;2080135;28;20588;-67
2023/07/24 11:50:17;;;;;;;11.98;6.57;;;;;;;18.64;90.90;95719.28;2081434;28;20197;-67
2023/07/24 11:51:19;;;;;;;10.80;6.50;;;;;;;18.56;89.96;95728.75;2081180;28;20235;-67
2023/07/24 11:52:20;;;;;;;15.93;6.75;;;;;;;18.48;91.47;95735.72;2084549;28;20654;-67
2023/07/24 11:53:30;;;;;;;12.52;7.05;;;;;;;18.38;91.58;95727.78;2083112;28;20225;-67
2023/07/24 11:54:35;;;;;;;14.32;7.30;;;;;;;18.39;92.08;95729.47;2082861;28;20200;-67
2023/07/24 11:55:36;;;;;;;11.73;6.70;;;;;;;18.44;90.98;95736.00;2082185;28;20255;-66
2023/07/24 11:56:38;;;;;;;12.25;7.07;;;;;;;18.41;90.71;95741.56;2082198;28;20279;-67
2023/07/24 11:57:40;;;;;;;9.88;6.10;;;;;;;18.37;90.67;95748.09;2080901;28;20201;-67
2023/07/24 11:58:41;;;;;;;16.42;6.82;;;;;;;18.41;91.54;95748.63;2080681;28;20236;-67
2023/07/24 11:59:43;;;;;;;12.88;7.50;;;;;;;18.44;91.44;95754.50;2081340;28;20526;-67
2023/07/24 12:00:47;;;;;;;15.05;6.50;;;;;;;18.38;90.74;95762.97;2082596;28;20564;-67
2023/07/24 12:01:48;;;;;;;12.52;7.05;;;;;;;18.39;90.74;95761.19;2082561;28;20602;-66
2023/07/24 12:02:50;;;;;;;13.25;6.10;;;;;;;18.40;90.44;95752.28;2081160;28;20196;-66
2023/07/24 12:03:52;;;;;;;11.30;7.30;;;;;;;18.37;91.20;95752.53;2082209;28;20216;-67
2023/07/24 12:04:58;;;;;;;12.38;6.47;;;;;;;18.37;91.04;95750.75;2082152;28;20219;-68
2023/07/24 12:05:59;;;;;;;11.05;6.35;;;;;;;18.27;90.87;95741.97;2083003;28;20280;-67
2023/07/24 12:07:01;;;;;;;11.70;6.28;;;;;;;18.27;91.34;95736.66;2083282;28;20588;-66
2023/07/24 12:08:02;;;;;;;11.15;6.43;;;;;;;18.25;89.88;95752.66;2082954;28;20213;-67
2023/07/24 12:36:28;;;;;;;13.57;6.47;;;;;;;17.99;93.81;95764.72;2090081;28;20558;-64
2023/07/24 12:38:41;;;;;;;14.02;7.18;;;;;;;18.10;94.30;95739.03;2091454;27;21045;-65
2023/07/24 12:39:47;;;;;;;12.10;6.75;;;;;;;18.09;93.73;95728.59;2090269;28;20227;-65
2023/07/24 12:40:49;;;;;;;11.90;5.70;;;;;;;18.23;93.29;95745.84;2084867;28;20860;-64
2023/07/24 12:41:50;;;;;;;11.43;6.75;;;;;;;18.29;93.31;95737.38;2089369;28;20204;-65
2023/07/24 12:42:52;;;;;;;12.65;7.28;;;;;;;18.31;92.47;95735.44;2088131;28;20200;-65
2023/07/24 12:43:54;;;;;;;12.48;6.57;;;;;;;18.28;92.04;95738.34;2087301;28;20196;-65
2023/07/24 12:44:55;;;;;;;16.40;6.50;;;;;;;18.35;91.46;95736.84;2087339;28;20234;-65
2023/07/24 12:45:59;;;;;;;13.70;6.90;;;;;;;18.52;92.10;95723.88;2089723;28;20205;-65
2023/07/24 12:47:00;;;;;;;12.02;6.35;;;;;;;18.68;91.71;95718.03;2089367;28;20577;-65
2023/07/24 12:48:02;;;;;;;10.98;6.43;;;;;;;18.77;91.43;95707.44;2089519;28;20204;-65
2023/07/24 12:49:04;;;;;;;12.02;7.40;;;;;;;18.76;90.85;95711.03;2097146;28;20653;-65
2023/07/24 12:50:05;;;;;;;10.75;6.07;;;;;;;18.84;90.59;95705.06;2097819;28;20219;-65
2023/07/24 12:51:08;;;;;;;9.93;5.70;;;;;;;19.04;90.36;95697.91;2098827;28;20250;-65
2023/07/24 12:52:11;;;;;;;13.30;5.78;;;;;;;19.16;90.01;95703.03;2099312;28;20199;-65
2023/07/24 12:53:12;;;;;;;12.63;6.40;;;;;;;19.05;88.91;95694.31;2098606;28;20223;-65
2023/07/24 12:54:15;;;;;;;15.52;6.88;;;;;;;19.09;89.49;95690.38;2095200;28;20200;-65
2023/07/24 12:55:37;;;;;;;11.93;6.68;;;;;;;19.05;89.26;95686.38;2096339;28;20203;-65
2023/07/24 12:56:39;;;;;;;12.55;6.47;;;;;;;19.00;88.92;95693.91;2094258;28;20203;-65
2023/07/24 13:04:37;;;;;;;10.85;5.80;;;;;;;18.65;90.75;95698.00;2084485;28;20552;-65
2023/07/24 13:05:38;;;;;;;8.80;5.65;;;;;;;18.67;89.93;95690.75;2082460;28;20371;-65
2023/07/24 13:06:40;;;;;;;12.32;6.68;;;;;;;18.72;90.65;95695.63;2077768;28;20194;-65
2023/07/24 13:07:41;;;;;;;16.00;6.95;;;;;;;18.66;90.63;95704.94;2082066;28;20547;-65
2023/07/24 13:08:43;;;;;;;13.15;6.25;;;;;;;18.70;90.61;95690.47;2080199;28;20220;-64
2023/07/24 13:09:44;;;;;;;9.55;5.68;;;;;;;18.70;90.91;95690.47;2082086;28;20197;-65
2023/07/24 13:10:46;;;;;;;10.60;6.88;;;;;;;18.76;90.93;95678.50;2084465;28;20603;-65
2023/07/24 13:11:50;;;;;;;9.73;5.70;;;;;;;18.76;91.88;95679.31;2079553;28;20323;-65
2023/07/24 13:12:52;;;;;;;10.63;6.35;;;;;;;18.84;91.24;95675.97;2079104;28;20204;-65
2023/07/24 13:13:54;;;;;;;12.65;5.88;;;;;;;18.86;90.45;95678.47;2082481;28;20200;-65
2023/07/24 13:14:55;;;;;;;10.50;6.72;;;;;;;18.89;90.97;95675.53;2081334;28;20203;-65
2023/07/24 13:15:57;;;;;;;10.95;6.13;;;;;;;18.79;90.62;95667.63;2082694;28;20245;-65
2023/07/24 13:16:58;;;;;;;10.57;5.88;;;;;;;18.77;89.54;95659.81;2081366;28;20204;-65
2023/07/24 13:18:00;;;;;;;10.93;6.13;;;;;;;18.90;89.60;95662.19;2079751;28;20837;-65
2023/07/24 13:19:18;;;;;;;9.70;5.57;;;;;;;18.97;90.09;95662.47;2080169;28;20606;-64
2023/07/24 13:20:21;;;;;;;11.63;5.80;;;;;;;19.01;91.15;95673.59;2079834;28;20200;-65
2023/07/24 13:21:23;;;;;;;9.73;5.53;;;;;;;19.05;89.71;95648.50;2076170;28;20541;-65
2023/07/24 13:22:25;;;;;;;11.15;5.20;;;;;;;19.05;88.50;95656.44;2075431;28;20874;-65
2023/07/24 13:23:26;;;;;;;10.23;6.32;;;;;;;19.06;87.31;95645.72;2077400;28;20248;-65
2023/07/24 13:24:28;;;;;;;7.85;5.53;;;;;;;19.22;86.90;95645.09;2077226;28;20667;-65
2023/07/24 13:25:29;;;;;;;9.60;5.63;;;;;;;19.29;85.17;95647.13;2080751;28;20221;-65
2023/07/24 13:26:33;;;;;;;8.88;5.35;;;;;;;19.51;87.12;95653.84;2084716;28;20219;-66
2023/07/24 13:27:34;;;;;;;9.68;5.65;;;;;;;19.51;86.31;95659.16;2083925;28;20209;-65
2023/07/24 13:28:39;;;;;;;9.20;5.82;;;;;;;19.57;85.47;95651.44;2079113;28;20311;-65
2023/07/24 13:29:41;;;;;;;10.68;5.45;;;;;;;19.84;84.02;95656.88;2080495;28;20200;-65
2023/07/24 13:30:43;;;;;;;9.00;5.28;;;;;;;20.23;82.33;95651.28;2080083;28;20251;-65
2023/07/24 13:31:45;;;;;;;10.32;5.30;;;;;;;20.62;81.83;95653.59;2081173;28;20268;-65
2023/07/24 13:32:46;;;;;;;13.13;6.28;;;;;;;21.04;80.57;95652.03;2081373;28;20216;-65
2023/07/24 13:33:48;;;;;;;8.75;5.38;;;;;;;21.48;79.76;95643.09;2082320;28;20202;-65
2023/07/24 13:34:49;;;;;;;11.95;6.22;;;;;;;21.75;79.59;95643.88;2082949;28;20193;-66
2023/07/24 13:35:51;;;;;;;9.75;5.80;;;;;;;22.08;78.05;95644.78;2081040;28;21137;-66
2023/07/24 13:36:52;;;;;;;10.45;5.72;;;;;;;21.77;75.67;95640.06;2080965;28;20201;-66
2023/07/24 13:37:54;;;;;;;8.10;4.85;;;;;;;21.66;75.95;95638.53;2079303;28;20246;-67
2023/07/24 13:38:56;;;;;;;9.88;5.72;;;;;;;21.55;76.97;95636.19;2081212;28;20754;-66
2023/07/24 13:39:57;;;;;;;8.35;5.07;;;;;;;21.52;76.54;95632.00;2079435;28;20607;-66
2023/07/24 13:40:59;;;;;;;10.43;4.72;;;;;;;22.12;76.89;95632.81;2080557;28;20205;-65
2023/07/24 13:42:00;;;;;;;11.20;5.78;;;;;;;22.32;75.13;95628.00;2079921;28;20197;-65
2023/07/24 13:43:02;;;;;;;13.65;6.57;;;;;;;22.26;76.55;95627.81;2080898;28;20201;-66
2023/07/24 13:44:04;;;;;;;11.88;5.75;;;;;;;22.50;74.66;95619.88;2082497;28;20563;-66
2023/07/24 13:45:06;;;;;;;8.10;5.10;;;;;;;22.52;72.86;95619.69;2081321;28;20201;-66
2023/07/24 13:46:08;;;;;;;8.63;5.63;;;;;;;22.33;71.35;95599.56;2081649;28;20195;-64
2023/07/24 13:47:10;;;;;;;14.18;5.97;;;;;;;22.29;69.51;95611.53;2080819;28;20603;-64
2023/07/24 13:48:11;;;;;;;11.38;5.95;;;;;;;22.36;70.15;95604.56;2079207;28;20221;-63
2023/07/24 13:49:13;;;;;;;9.82;5.72;;;;;;;22.39;71.76;95600.78;2077395;28;20201;-63
2023/07/24 13:50:14;;;;;;;8.93;5.07;;;;;;;22.52;71.54;95605.56;2080091;28;20208;-63
2023/07/24 13:51:16;;;;;;;11.80;7.20;;;;;;;22.78;71.15;95610.69;2083220;28;20552;-64
2023/07/24 13:52:17;;;;;;;16.63;6.65;;;;;;;23.24;71.12;95604.75;2082030;28;20205;-64
2023/07/24 13:53:19;;;;;;;9.80;5.90;;;;;;;23.24;69.66;95594.09;2078568;28;20217;-63
2023/07/24 13:54:21;;;;;;;8.50;5.30;;;;;;;23.65;69.55;95599.19;2079146;28;20201;-64
2023/07/24 13:55:22;;;;;;;9.02;5.57;;;;;;;23.57;68.52;95605.41;2076008;28;20281;-64
2023/07/24 13:56:24;;;;;;;8.93;5.50;;;;;;;23.42;69.45;95607.97;2075639;28;20198;-64
2023/07/24 13:57:25;;;;;;;8.90;5.18;;;;;;;23.18;68.93;95594.78;2083785;28;20859;-64
2023/07/24 13:58:26;;;;;;;13.38;5.68;;;;;;;23.20;67.21;95598.09;2083922;28;20578;-64
2023/07/24 13:59:28;;;;;;;9.45;5.80;;;;;;;23.20;66.90;95603.41;2080345;28;20197;-63
2023/07/24 14:00:29;;;;;;;10.80;6.15;;;;;;;23.01;65.50;95592.16;2077527;28;20244;-64
2023/07/24 14:01:31;;;;;;;9.50;5.60;;;;;;;23.14;66.53;95589.75;2078805;28;20244;-64
2023/07/24 14:02:33;;;;;;;10.45;4.90;;;;;;;22.93;66.92;95592.16;2080600;28;20206;-64
2023/07/24 14:03:34;;;;;;;7.90;5.22;;;;;;;22.98;67.42;95589.81;2078512;28;20228;-64
2023/07/24 14:04:36;;;;;;;11.43;5.03;;;;;;;23.12;65.62;95606.91;2080290;28;20268;-64
2023/07/24 14:05:38;;;;;;;8.15;5.07;;;;;;;23.27;65.72;95610.56;2079440;28;20280;-63
2023/07/24 14:06:39;;;;;;;10.93;6.30;;;;;;;23.53;66.46;95604.09;2082075;28;20763;-64
2023/07/24 14:07:41;;;;;;;10.77;6.38;;;;;;;23.22;66.64;95615.56;2079746;28;20254;-64
2023/07/24 14:08:44;;;;;;;9.63;4.82;;;;;;;22.64;66.49;95606.91;2077901;28;20307;-64
2023/07/24 14:09:45;;;;;;;10.75;5.43;;;;;;;22.34;67.20;95609.22;2079947;28;20254;-64
2023/07/24 14:10:47;;;;;;;8.70;5.53;;;;;;;22.26;68.43;95610.03;2080950;28;20655;-64
2023/07/24 14:11:48;;;;;;;9.60;6.32;;;;;;;22.02;68.10;95601.06;2082224;28;20188;-64
2023/07/24 14:12:50;;;;;;;9.30;5.75;;;;;;;21.93;67.69;95611.84;2081461;28;20692;-64
2023/07/24 14:13:51;;;;;;;9.45;5.38;;;;;;;21.87;68.12;95596.56;2080040;28;20194;-63
2023/07/24 14:14:52;;;;;;;8.95;5.78;;;;;;;21.80;67.80;95591.91;2077272;28;20572;-64
2023/07/24 14:15:54;;;;;;;9.70;5.70;;;;;;;21.79;68.71;95597.41;2073686;28;20537;-63
2023/07/24 14:16:55;;;;;;;10.63;5.60;;;;;;;21.67;68.42;95600.38;2076407;28;20204;-63
2023/07/24 14:17:57;;;;;;;9.30;5.55;;;;;;;21.62;68.89;95608.00;2073912;28;20207;-63
2023/07/24 14:18:58;;;;;;;8.40;4.72;;;;;;;21.62;68.96;95607.16;2073807;28;20202;-63
2023/07/24 14:20:01;;;;;;;9.30;5.22;;;;;;;21.50;68.75;95606.59;2072212;28;20262;-64
2023/07/24 14:21:03;;;;;;;8.98;5.68;;;;;;;21.56;69.16;95589.19;2073002;28;20292;-63
2023/07/24 14:22:05;;;;;;;8.45;4.90;;;;;;;21.59;68.78;95594.22;2075521;28;20201;-63
2023/07/24 14:23:07;;;;;;;9.13;5.90;;;;;;;21.60;69.07;95599.34;2074190;28;20225;-63
2023/07/24 14:24:09;;;;;;;9.45;5.00;;;;;;;21.65;69.61;95596.22;2073875;28;20237;-63
2023/07/24 14:25:10;;;;;;;8.85;5.20;;;;;;;21.81;69.60;95595.41;2074283;28;20210;-65
2023/07/24 14:26:12;;;;;;;8.95;5.30;;;;;;;21.81;68.66;95587.44;2073079;28;20280;-65
2023/07/24 14:27:14;;;;;;;9.80;6.47;;;;;;;21.84;68.84;95590.59;2075930;28;20235;-65
2023/07/24 14:28:15;;;;;;;8.80;5.05;;;;;;;21.93;68.32;95593.25;2069016;28;20236;-65
2023/07/24 14:29:17;;;;;;;11.50;4.80;;;;;;;21.98;68.12;95583.78;2074285;28;20251;-64
2023/07/24 14:30:18;;;;;;;8.82;4.90;;;;;;;21.92;68.11;95583.63;2076900;28;20552;-64
2023/07/24 14:31:20;;;;;;;9.18;5.40;;;;;;;21.96;67.95;95583.13;2076283;28;20804;-64
2023/07/24 14:32:21;;;;;;;8.93;5.55;;;;;;;22.03;67.01;95585.97;2071359;28;20197;-64
2023/07/24 14:33:23;;;;;;;9.93;5.68;;;;;;;22.20;66.94;95589.44;2070583;28;20220;-64
2023/07/24 14:34:25;;;;;;;9.05;4.93;;;;;;;22.37;66.08;95584.97;2072318;28;20237;-64
2023/07/24 14:35:26;;;;;;;7.45;4.60;;;;;;;22.60;65.40;95577.13;2070426;28;20230;-64
2023/07/24 14:36:33;;;;;;;6.95;4.07;;;;;;;22.77;64.65;95575.25;2070967;28;20280;-65
2023/07/24 14:37:35;;;;;;;13.45;5.55;;;;;;;23.13;64.29;95573.97;2074216;28;20220;-64
2023/07/24 14:38:36;;;;;;;11.48;5.20;;;;;;;23.07;63.86;95574.66;2072703;28;20874;-64
2023/07/24 14:39:38;;;;;;;6.75;4.50;;;;;;;22.98;63.54;95568.53;2073464;28;20549;-64
2023/07/24 14:40:39;;;;;;;10.70;5.15;;;;;;;22.97;64.50;95566.88;2072893;28;20236;-64
2023/07/24 14:41:41;;;;;;;6.35;4.40;;;;;;;22.94;64.06;95573.38;2072201;28;20535;-64
2023/07/24 14:42:42;;;;;;;8.10;4.70;;;;;;;23.21;63.21;95558.00;2069670;28;20194;-65
2023/07/24 14:43:44;;;;;;;6.25;4.07;;;;;;;23.30;63.39;95569.44;2073186;28;20279;-64
2023/07/24 14:44:45;;;;;;;8.95;4.97;;;;;;;23.36;63.63;95570.56;2076342;28;20633;-65
2023/07/24 14:45:48;;;;;;;7.55;4.00;;;;;;;23.30;63.89;95570.25;2076515;28;20197;-65
2023/07/24 14:46:49;;;;;;;7.97;4.75;;;;;;;23.19;65.05;95560.00;2073799;28;20201;-65
2023/07/24 14:47:51;;;;;;;11.20;4.93;;;;;;;23.04;66.05;95564.38;2076717;28;20201;-65
2023/07/24 14:48:52;;;;;;;7.93;4.45;;;;;;;23.05;65.85;95571.34;2072259;28;20557;-65
2023/07/24 14:49:54;;;;;;;8.82;5.05;;;;;;;23.04;66.35;95562.50;2071636;28;20213;-65
2023/07/24 14:50:55;;;;;;;8.02;4.85;;;;;;;22.99;65.25;95565.72;2071073;28;20660;-64
2023/07/24 14:51:57;;;;;;;7.20;4.05;;;;;;;22.92;65.05;95558.56;2069939;28;20206;-65
2023/07/24 14:52:58;;;;;;;6.50;4.35;;;;;;;22.99;65.58;95562.22;2070425;28;20210;-65
2023/07/24 14:54:00;;;;;;;10.55;4.18;;;;;;;22.75;64.68;95555.97;2071506;28;20393;-65
2023/07/24 14:55:01;;;;;;;6.55;4.10;;;;;;;22.73;65.34;95552.66;2078886;28;20631;-65
2023/07/24 14:56:03;;;;;;;8.30;4.72;;;;;;;22.71;65.78;95548.50;2076865;28;20224;-65
2023/07/24 14:57:06;;;;;;;6.70;4.78;;;;;;;22.78;65.80;95552.97;2074425;28;20228;-64
2023/07/24 14:58:25;;;;;;;7.32;4.57;;;;;;;22.76;66.42;95546.16;2073538;28;20248;-65
2023/07/24 14:59:26;;;;;;;7.50;4.40;;;;;;;22.71;67.12;95548.50;2073723;28;20201;-64
2023/07/24 15:00:31;;;;;;;7.63;4.63;;;;;;;22.50;66.60;95556.03;2073381;28;20205;-65
2023/07/24 15:01:33;;;;;;;6.30;3.88;;;;;;;22.37;66.73;95546.91;2069240;28;20216;-65
2023/07/24 15:02:35;;;;;;;6.70;3.88;;;;;;;22.33;67.99;95549.91;2067507;28;20216;-65
2023/07/24 15:03:36;;;;;;;10.80;4.55;;;;;;;22.22;67.82;95558.22;2070066;28;20381;-65
2023/07/24 15:04:38;;;;;;;12.00;4.60;;;;;;;22.19;67.64;95553.22;2068923;28;20202;-65
2023/07/24 15:05:39;;;;;;;7.35;4.53;;;;;;;22.20;68.14;95560.19;2069364;28;20211;-65
2023/07/24 15:06:41;;;;;;;6.75;4.50;;;;;;;22.12;67.73;95558.38;2068630;28;20414;-65
2023/07/24 15:07:42;;;;;;;7.07;4.32;;;;;;;22.09;67.65;95565.84;2069623;28;20278;-66
2023/07/24 15:08:44;;;;;;;7.10;4.30;;;;;;;22.01;67.71;95564.03;2075769;28;20231;-65
2023/07/24 15:09:45;;;;;;;6.90;4.47;;;;;;;21.98;67.42;95570.50;2070439;28;20198;-65
2023/07/24 15:10:47;;;;;;;7.10;4.07;;;;;;;21.97;68.03;95573.34;2072027;28;20200;-65
2023/07/24 15:11:48;;;;;;;8.45;4.57;;;;;;;21.84;67.80;95577.31;2072684;28;20554;-65
2023/07/24 15:12:50;;;;;;;9.07;4.32;;;;;;;21.76;68.17;95571.97;2070161;28;20202;-65
2023/07/24 15:13:51;;;;;;;8.48;4.45;;;;;;;21.75;68.36;95574.78;2074501;28;20218;-65
2023/07/24 15:14:53;;;;;;;8.75;5.03;;;;;;;21.77;68.48;95580.78;2074568;28;20714;-65
2023/07/24 15:15:54;;;;;;;8.10;3.85;;;;;;;21.66;68.55;95580.09;2074051;28;20308;-65
2023/07/24 15:16:56;;;;;;;7.65;3.85;;;;;;;21.58;68.33;95582.72;2071828;28;20281;-65
2023/07/24 16:40:26;;;;;;;16.38;9.05;;;;;;;17.46;100.00;95655.81;2110377;27;20536;-63
